sensor_id;sensor_type;location;lat;lon;timestamp;pressure;altitude;pressure_sealevel;temperature;humidity
55550;BME280;41397;49.972;18.944;2023-08-21T00:02:16;102385.44;;;30.29;54.04
55550;BME280;41397;49.972;18.944;2023-08-21T00:05:18;102374.59;;;30.26;53.89
55550;BME280;41397;49.972;18.944;2023-08-21T00:08:20;102382.83;;;30.28;53.74
55550;BME280;41397;49.972;18.944;2023-08-21T00:11:21;102377.63;;;30.25;53.60
55550;BME280;41397;49.972;18.944;2023-08-21T00:14:23;102375.03;;;30.23;53.67
55550;BME280;41397;49.972;18.944;2023-08-21T00:17:25;102372.22;;;30.23;53.57
55550;BME280;41397;49.972;18.944;2023-08-21T00:20:27;102375.21;;;30.22;53.40
55550;BME280;41397;49.972;18.944;2023-08-21T00:23:29;102361.34;;;30.20;53.31
55550;BME280;41397;49.972;18.944;2023-08-21T00:26:31;102365.47;;;30.18;53.18
55550;BME280;41397;49.972;18.944;2023-08-21T00:29:33;102365.22;;;30.19;53.06
55550;BME280;41397;49.972;18.944;2023-08-21T00:32:35;102369.35;;;30.17;53.02
55550;BME280;41397;49.972;18.944;2023-08-21T00:35:37;102368.93;;;30.13;53.02
55550;BME280;41397;49.972;18.944;2023-08-21T00:38:39;102366.30;;;30.12;52.83
55550;BME280;41397;49.972;18.944;2023-08-21T00:41:41;102374.15;;;30.09;53.00
55550;BME280;41397;49.972;18.944;2023-08-21T00:44:43;102368.91;;;30.06;53.13
55550;BME280;41397;49.972;18.944;2023-08-21T00:47:45;102382.16;;;30.06;53.26
55550;BME280;41397;49.972;18.944;2023-08-21T00:50:46;102375.00;;;29.97;53.41
55550;BME280;41397;49.972;18.944;2023-08-21T00:53:48;102369.36;;;29.97;53.46
55550;BME280;41397;49.972;18.944;2023-08-21T00:56:49;102366.74;;;29.95;53.71
55550;BME280;41397;49.972;18.944;2023-08-21T00:59:53;102370.66;;;29.94;53.63
55550;BME280;41397;49.972;18.944;2023-08-21T01:02:55;102374.98;;;29.90;53.65
55550;BME280;41397;49.972;18.944;2023-08-21T01:05:56;102375.22;;;29.89;53.72
55550;BME280;41397;49.972;18.944;2023-08-21T01:09:04;102374.79;;;29.85;53.61
55550;BME280;41397;49.972;18.944;2023-08-21T01:12:14;102372.17;;;29.83;53.93
55550;BME280;41397;49.972;18.944;2023-08-21T01:15:18;102367.63;;;29.82;53.63
55550;BME280;41397;49.972;18.944;2023-08-21T01:18:20;102375.00;;;29.77;54.10
55550;BME280;41397;49.972;18.944;2023-08-21T01:21:23;102375.87;;;29.77;54.15
55550;BME280;41397;49.972;18.944;2023-08-21T01:24:25;102372.81;;;29.72;54.36
55550;BME280;41397;49.972;18.944;2023-08-21T01:27:26;102368.04;;;29.66;54.31
55550;BME280;41397;49.972;18.944;2023-08-21T01:30:30;102372.16;;;29.63;54.35
55550;BME280;41397;49.972;18.944;2023-08-21T01:33:40;102377.96;;;29.62;54.32
55550;BME280;41397;49.972;18.944;2023-08-21T01:36:43;102369.73;;;29.60;54.56
55550;BME280;41397;49.972;18.944;2023-08-21T01:39:44;102369.73;;;29.60;54.58
55550;BME280;41397;49.972;18.944;2023-08-21T01:42:46;102373.84;;;29.58;54.62
55550;BME280;41397;49.972;18.944;2023-08-21T01:45:47;102366.89;;;29.54;54.60
55550;BME280;41397;49.972;18.944;2023-08-21T01:48:48;102369.71;;;29.54;54.53
55550;BME280;41397;49.972;18.944;2023-08-21T01:51:49;102361.68;;;29.51;54.66
55550;BME280;41397;49.972;18.944;2023-08-21T01:54:50;102360.59;;;29.45;54.83
55550;BME280;41397;49.972;18.944;2023-08-21T01:57:52;102362.54;;;29.45;54.50
55550;BME280;41397;49.972;18.944;2023-08-21T02:00:53;102366.42;;;29.43;54.91
55550;BME280;41397;49.972;18.944;2023-08-21T02:03:54;102362.73;;;29.43;55.02
55550;BME280;41397;49.972;18.944;2023-08-21T02:06:55;102370.76;;;29.39;54.71
55550;BME280;41397;49.972;18.944;2023-08-21T02:09:56;102365.99;;;29.40;55.07
55550;BME280;41397;49.972;18.944;2023-08-21T02:12:58;102360.98;;;29.35;54.95
55550;BME280;41397;49.972;18.944;2023-08-21T02:15:59;102355.14;;;29.30;55.17
55550;BME280;41397;49.972;18.944;2023-08-21T02:19:01;102354.01;;;29.25;55.10
55550;BME280;41397;49.972;18.944;2023-08-21T02:22:02;102349.04;;;29.20;55.38
55550;BME280;41397;49.972;18.944;2023-08-21T02:25:03;102352.05;;;29.18;55.06
55550;BME280;41397;49.972;18.944;2023-08-21T02:28:05;102350.09;;;29.19;55.31
55550;BME280;41397;49.972;18.944;2023-08-21T02:31:11;102358.55;;;29.19;55.28
55550;BME280;41397;49.972;18.944;2023-08-21T02:34:13;102361.84;;;29.23;55.22
55550;BME280;41397;49.972;18.944;2023-08-21T02:37:14;102362.89;;;29.21;55.39
55550;BME280;41397;49.972;18.944;2023-08-21T02:40:15;102357.69;;;29.18;55.52
55550;BME280;41397;49.972;18.944;2023-08-21T02:43:16;102360.73;;;29.17;55.39
55550;BME280;41397;49.972;18.944;2023-08-21T02:46:18;102346.84;;;29.15;55.44
55550;BME280;41397;49.972;18.944;2023-08-21T02:49:19;102344.45;;;29.12;55.39
55550;BME280;41397;49.972;18.944;2023-08-21T02:52:20;102350.29;;;29.11;55.42
55550;BME280;41397;49.972;18.944;2023-08-21T02:55:24;102344.45;;;29.06;55.54
55550;BME280;41397;49.972;18.944;2023-08-21T02:58:25;102344.45;;;29.06;55.54
55550;BME280;41397;49.972;18.944;2023-08-21T03:01:26;102338.13;;;29.04;55.54
55550;BME280;41397;49.972;18.944;2023-08-21T03:04:27;102341.34;;;29.01;55.41
55550;BME280;41397;49.972;18.944;2023-08-21T03:07:32;102358.25;;;29.01;55.66
55550;BME280;41397;49.972;18.944;2023-08-21T03:10:33;102346.31;;;28.98;55.50
55550;BME280;41397;49.972;18.944;2023-08-21T03:13:38;102349.14;;;28.98;55.50
55550;BME280;41397;49.972;18.944;2023-08-21T03:16:39;102354.96;;;28.97;55.80
55550;BME280;41397;49.972;18.944;2023-08-21T03:19:40;102351.47;;;28.88;55.84
55550;BME280;41397;49.972;18.944;2023-08-21T03:22:41;102357.77;;;28.90;55.96
55550;BME280;41397;49.972;18.944;2023-08-21T03:25:42;102363.59;;;28.89;56.19
55550;BME280;41397;49.972;18.944;2023-08-21T03:28:44;102366.39;;;28.82;56.17
55550;BME280;41397;49.972;18.944;2023-08-21T03:31:53;102368.98;;;28.84;56.24
55550;BME280;41397;49.972;18.944;2023-08-21T03:34:57;102374.62;;;28.84;56.15
55550;BME280;41397;49.972;18.944;2023-08-21T03:37:58;102362.71;;;28.82;56.20
55550;BME280;41397;49.972;18.944;2023-08-21T03:41:00;102359.67;;;28.83;56.17
55550;BME280;41397;49.972;18.944;2023-08-21T03:44:01;102357.27;;;28.80;56.27
55550;BME280;41397;49.972;18.944;2023-08-21T03:47:02;102352.50;;;28.81;56.25
55550;BME280;41397;49.972;18.944;2023-08-21T03:50:04;102354.69;;;28.79;56.19
55550;BME280;41397;49.972;18.944;2023-08-21T03:53:05;102350.77;;;28.80;55.96
55550;BME280;41397;49.972;18.944;2023-08-21T03:56:06;102346.43;;;28.77;55.86
55550;BME280;41397;49.972;18.944;2023-08-21T03:59:08;102354.88;;;28.77;55.94
55550;BME280;41397;49.972;18.944;2023-08-21T04:02:09;102353.16;;;28.76;56.01
55550;BME280;41397;49.972;18.944;2023-08-21T04:05:11;102355.54;;;28.79;56.13
55550;BME280;41397;49.972;18.944;2023-08-21T04:08:12;102353.61;;;28.86;55.88
55550;BME280;41397;49.972;18.944;2023-08-21T04:11:15;102348.98;;;29.07;55.42
55550;BME280;41397;49.972;18.944;2023-08-21T04:14:17;102348.17;;;29.26;54.93
55550;BME280;41397;49.972;18.944;2023-08-21T04:17:22;102349.31;;;29.52;54.38
55550;BME280;41397;49.972;18.944;2023-08-21T04:20:23;102355.88;;;29.79;53.85
55550;BME280;41397;49.972;18.944;2023-08-21T04:23:25;102352.88;;;30.07;53.15
55550;BME280;41397;49.972;18.944;2023-08-21T04:26:26;102361.13;;;30.35;52.64
55550;BME280;41397;49.972;18.944;2023-08-21T04:29:27;102358.02;;;30.63;52.06
55550;BME280;41397;49.972;18.944;2023-08-21T04:32:28;102362.30;;;30.92;51.41
55550;BME280;41397;49.972;18.944;2023-08-21T04:35:30;102353.66;;;31.26;50.79
55550;BME280;41397;49.972;18.944;2023-08-21T04:38:31;102354.38;;;31.59;49.89
55550;BME280;41397;49.972;18.944;2023-08-21T04:41:32;102343.01;;;31.91;49.33
55550;BME280;41397;49.972;18.944;2023-08-21T04:44:35;102346.28;;;32.20;48.64
55550;BME280;41397;49.972;18.944;2023-08-21T04:47:36;102339.66;;;32.51;47.88
55550;BME280;41397;49.972;18.944;2023-08-21T04:50:38;102339.10;;;32.79;47.22
55550;BME280;41397;49.972;18.944;2023-08-21T04:53:39;102342.75;;;33.05;46.40
55550;BME280;41397;49.972;18.944;2023-08-21T04:56:43;102344.73;;;33.34;46.09
55550;BME280;41397;49.972;18.944;2023-08-21T04:59:44;102345.46;;;33.60;45.61
55550;BME280;41397;49.972;18.944;2023-08-21T05:02:45;102342.70;;;33.84;45.17
55550;BME280;41397;49.972;18.944;2023-08-21T05:05:53;102351.88;;;34.09;44.78
55550;BME280;41397;49.972;18.944;2023-08-21T05:08:55;102346.22;;;34.33;44.39
55550;BME280;41397;49.972;18.944;2023-08-21T05:11:56;102344.63;;;34.60;43.95
55550;BME280;41397;49.972;18.944;2023-08-21T05:14:57;102338.16;;;34.77;43.20
55550;BME280;41397;49.972;18.944;2023-08-21T05:17:58;102347.55;;;34.77;42.74
55550;BME280;41397;49.972;18.944;2023-08-21T05:20:59;102345.55;;;34.78;43.22
55550;BME280;41397;49.972;18.944;2023-08-21T05:24:01;102340.16;;;34.64;43.06
55550;BME280;41397;49.972;18.944;2023-08-21T05:27:02;102346.35;;;34.38;43.16
55550;BME280;41397;49.972;18.944;2023-08-21T05:30:06;102350.16;;;34.20;43.76
55550;BME280;41397;49.972;18.944;2023-08-21T05:33:08;102361.59;;;34.01;44.18
55550;BME280;41397;49.972;18.944;2023-08-21T05:36:09;102362.41;;;33.78;44.75
55550;BME280;41397;49.972;18.944;2023-08-21T05:39:10;102367.16;;;33.54;45.53
55550;BME280;41397;49.972;18.944;2023-08-21T05:42:11;102372.21;;;33.34;46.36
55550;BME280;41397;49.972;18.944;2023-08-21T05:45:13;102385.33;;;33.16;46.67
55550;BME280;41397;49.972;18.944;2023-08-21T05:48:15;102376.42;;;33.31;46.89
55550;BME280;41397;49.972;18.944;2023-08-21T05:51:18;102373.95;;;33.35;47.22
55550;BME280;41397;49.972;18.944;2023-08-21T05:54:19;102366.98;;;33.49;46.97
55550;BME280;41397;49.972;18.944;2023-08-21T05:57:21;102365.26;;;33.78;46.41
55550;BME280;41397;49.972;18.944;2023-08-21T06:00:22;102371.98;;;34.08;45.86
55550;BME280;41397;49.972;18.944;2023-08-21T06:03:23;102374.74;;;34.38;45.16
55550;BME280;41397;49.972;18.944;2023-08-21T06:06:25;102379.81;;;34.71;44.67
55550;BME280;41397;49.972;18.944;2023-08-21T06:09:29;102376.59;;;34.79;44.32
55550;BME280;41397;49.972;18.944;2023-08-21T06:12:32;102372.00;;;34.78;43.71
55550;BME280;41397;49.972;18.944;2023-08-21T06:15:33;102374.73;;;34.85;44.00
55550;BME280;41397;49.972;18.944;2023-08-21T06:18:34;102381.34;;;35.02;43.98
55550;BME280;41397;49.972;18.944;2023-08-21T06:21:37;102391.95;;;35.19;43.43
55550;BME280;41397;49.972;18.944;2023-08-21T06:24:38;102396.73;;;35.30;43.23
55550;BME280;41397;49.972;18.944;2023-08-21T06:27:39;102403.34;;;35.19;42.69
55550;BME280;41397;49.972;18.944;2023-08-21T06:30:40;102386.05;;;34.97;43.21
55550;BME280;41397;49.972;18.944;2023-08-21T06:33:44;102396.46;;;34.91;43.44
55550;BME280;41397;49.972;18.944;2023-08-21T06:36:46;102388.66;;;34.98;43.70
55550;BME280;41397;49.972;18.944;2023-08-21T06:39:47;102405.21;;;35.13;43.61
55550;BME280;41397;49.972;18.944;2023-08-21T06:42:48;102401.34;;;35.19;42.74
55550;BME280;41397;49.972;18.944;2023-08-21T06:45:53;102403.13;;;34.97;42.33
55550;BME280;41397;49.972;18.944;2023-08-21T06:48:54;102404.86;;;34.86;42.19
55550;BME280;41397;49.972;18.944;2023-08-21T06:51:55;102405.01;;;34.67;42.99
55550;BME280;41397;49.972;18.944;2023-08-21T06:54:57;102407.96;;;34.49;42.72
55550;BME280;41397;49.972;18.944;2023-08-21T06:58:00;102405.47;;;34.29;43.30
55550;BME280;41397;49.972;18.944;2023-08-21T07:01:01;102408.53;;;34.16;43.80
55550;BME280;41397;49.972;18.944;2023-08-21T07:04:03;102413.54;;;34.02;43.78
55550;BME280;41397;49.972;18.944;2023-08-21T07:07:04;102429.43;;;33.91;44.45
55550;BME280;41397;49.972;18.944;2023-08-21T07:10:08;102418.69;;;33.81;44.54
55550;BME280;41397;49.972;18.944;2023-08-21T07:13:09;102421.53;;;33.81;45.00
55550;BME280;41397;49.972;18.944;2023-08-21T07:16:11;102428.84;;;33.89;45.10
55550;BME280;41397;49.972;18.944;2023-08-21T07:19:12;102430.26;;;34.10;45.06
55550;BME280;41397;49.972;18.944;2023-08-21T07:22:15;102439.41;;;34.24;44.61
55550;BME280;41397;49.972;18.944;2023-08-21T07:25:16;102432.94;;;34.59;44.28
55550;BME280;41397;49.972;18.944;2023-08-21T07:28:18;102431.19;;;34.81;44.34
55550;BME280;41397;49.972;18.944;2023-08-21T07:31:19;102430.81;;;35.13;43.70
55550;BME280;41397;49.972;18.944;2023-08-21T07:34:24;102441.73;;;35.45;43.05
55550;BME280;41397;49.972;18.944;2023-08-21T07:37:25;102442.02;;;35.72;42.14
55550;BME280;41397;49.972;18.944;2023-08-21T07:40:26;102439.82;;;35.91;42.07
55550;BME280;41397;49.972;18.944;2023-08-21T07:43:27;102438.59;;;36.15;40.42
55550;BME280;41397;49.972;18.944;2023-08-21T07:46:31;102446.00;;;36.33;40.18
55550;BME280;41397;49.972;18.944;2023-08-21T07:49:33;102438.59;;;36.32;40.42
55550;BME280;41397;49.972;18.944;2023-08-21T07:52:35;102437.44;;;36.50;40.56
55550;BME280;41397;49.972;18.944;2023-08-21T07:55:36;102441.26;;;36.73;39.30
55550;BME280;41397;49.972;18.944;2023-08-21T07:58:39;102439.69;;;36.82;39.01
55550;BME280;41397;49.972;18.944;2023-08-21T08:01:40;102439.60;;;36.77;39.15
55550;BME280;41397;49.972;18.944;2023-08-21T08:04:42;102441.47;;;36.88;38.92
55550;BME280;41397;49.972;18.944;2023-08-21T08:07:44;102441.45;;;37.05;38.64
55550;BME280;41397;49.972;18.944;2023-08-21T08:10:47;102439.88;;;37.14;39.38
55550;BME280;41397;49.972;18.944;2023-08-21T08:13:48;102447.83;;;37.34;38.78
55550;BME280;41397;49.972;18.944;2023-08-21T08:16:49;102443.91;;;37.40;39.38
55550;BME280;41397;49.972;18.944;2023-08-21T08:19:50;102448.14;;;37.38;39.04
55550;BME280;41397;49.972;18.944;2023-08-21T08:22:54;102450.63;;;37.29;38.57
55550;BME280;41397;49.972;18.944;2023-08-21T08:25:56;102452.61;;;37.28;38.45
55550;BME280;41397;49.972;18.944;2023-08-21T08:28:58;102457.31;;;37.18;38.49
55550;BME280;41397;49.972;18.944;2023-08-21T08:32:00;102460.63;;;37.09;38.11
55550;BME280;41397;49.972;18.944;2023-08-21T08:35:02;102456.09;;;36.92;37.76
55550;BME280;41397;49.972;18.944;2023-08-21T08:38:04;102455.92;;;36.81;39.05
55550;BME280;41397;49.972;18.944;2023-08-21T08:41:12;102445.13;;;36.83;38.81
55550;BME280;41397;49.972;18.944;2023-08-21T08:44:15;102443.80;;;36.91;38.73
55550;BME280;41397;49.972;18.944;2023-08-21T08:47:19;102446.07;;;36.89;38.09
55550;BME280;41397;49.972;18.944;2023-08-21T08:50:21;102446.55;;;36.86;37.79
55550;BME280;41397;49.972;18.944;2023-08-21T08:53:23;102446.23;;;36.82;37.74
55550;BME280;41397;49.972;18.944;2023-08-21T08:56:25;102446.31;;;36.87;37.83
55550;BME280;41397;49.972;18.944;2023-08-21T08:59:28;102455.20;;;36.91;37.62
55550;BME280;41397;49.972;18.944;2023-08-21T09:02:30;102452.55;;;36.84;36.78
55550;BME280;41397;49.972;18.944;2023-08-21T09:05:33;102456.55;;;36.83;37.75
55550;BME280;41397;49.972;18.944;2023-08-21T09:08:35;102441.21;;;36.89;38.23
55550;BME280;41397;49.972;18.944;2023-08-21T09:11:39;102446.79;;;37.01;38.11
55550;BME280;41397;49.972;18.944;2023-08-21T09:14:46;102450.09;;;36.93;37.62
55550;BME280;41397;49.972;18.944;2023-08-21T09:17:53;102436.50;;;36.78;37.87
55550;BME280;41397;49.972;18.944;2023-08-21T09:20:55;102431.46;;;36.85;38.26
55550;BME280;41397;49.972;18.944;2023-08-21T09:23:58;102423.81;;;36.91;38.11
55550;BME280;41397;49.972;18.944;2023-08-21T09:27:00;102425.30;;;36.94;37.75
55550;BME280;41397;49.972;18.944;2023-08-21T09:30:06;102415.88;;;36.93;37.68
55550;BME280;41397;49.972;18.944;2023-08-21T09:33:09;102414.73;;;36.94;37.60
55550;BME280;41397;49.972;18.944;2023-08-21T09:36:10;102415.95;;;36.98;37.87
55550;BME280;41397;49.972;18.944;2023-08-21T09:39:15;102416.16;;;36.92;36.63
55550;BME280;41397;49.972;18.944;2023-08-21T09:42:23;102416.17;;;36.75;37.62
55550;BME280;41397;49.972;18.944;2023-08-21T09:45:27;102399.68;;;36.77;38.34
55550;BME280;41397;49.972;18.944;2023-08-21T09:48:30;102398.30;;;36.79;38.70
55550;BME280;41397;49.972;18.944;2023-08-21T09:51:32;102394.73;;;36.89;38.67
55550;BME280;41397;49.972;18.944;2023-08-21T09:54:34;102406.79;;;36.96;38.80
55550;BME280;41397;49.972;18.944;2023-08-21T09:57:35;102400.94;;;37.03;38.31
55550;BME280;41397;49.972;18.944;2023-08-21T10:00:37;102403.15;;;37.01;36.99
55550;BME280;41397;49.972;18.944;2023-08-21T10:03:41;102396.77;;;36.94;38.74
55550;BME280;41397;49.972;18.944;2023-08-21T10:06:46;102396.52;;;36.95;39.10
55550;BME280;41397;49.972;18.944;2023-08-21T10:09:48;102393.75;;;37.00;38.36
55550;BME280;41397;49.972;18.944;2023-08-21T10:12:50;102395.81;;;37.05;38.44
55550;BME280;41397;49.972;18.944;2023-08-21T10:15:51;102391.57;;;37.07;38.88
55550;BME280;41397;49.972;18.944;2023-08-21T10:18:52;102397.27;;;37.07;38.10
55550;BME280;41397;49.972;18.944;2023-08-21T10:21:55;102392.70;;;37.06;38.01
55550;BME280;41397;49.972;18.944;2023-08-21T10:24:59;102387.26;;;37.05;38.04
55550;BME280;41397;49.972;18.944;2023-08-21T10:28:00;102396.41;;;37.07;37.98
55550;BME280;41397;49.972;18.944;2023-08-21T10:34:19;102384.05;;;37.01;37.54
55550;BME280;41397;49.972;18.944;2023-08-21T10:37:20;102384.51;;;36.93;38.33
55550;BME280;41397;49.972;18.944;2023-08-21T10:40:22;102391.28;;;36.87;38.44
55550;BME280;41397;49.972;18.944;2023-08-21T10:50:02;102377.06;;;36.53;39.07
55550;BME280;41397;49.972;18.944;2023-08-21T10:52:59;102387.03;;;36.51;38.72
55550;BME280;41397;49.972;18.944;2023-08-21T10:56:05;102374.49;;;36.52;38.82
55550;BME280;41397;49.972;18.944;2023-08-21T10:59:07;102379.26;;;36.46;38.60
55550;BME280;41397;49.972;18.944;2023-08-21T11:02:08;102379.51;;;36.44;39.26
55550;BME280;41397;49.972;18.944;2023-08-21T11:05:10;102380.31;;;36.40;38.92
55550;BME280;41397;49.972;18.944;2023-08-21T11:08:12;102369.07;;;36.33;39.06
55550;BME280;41397;49.972;18.944;2023-08-21T11:11:16;102370.13;;;36.27;39.31
55550;BME280;41397;49.972;18.944;2023-08-21T11:14:18;102369.10;;;36.16;39.41
55550;BME280;41397;49.972;18.944;2023-08-21T11:17:24;102367.81;;;36.07;39.85
55550;BME280;41397;49.972;18.944;2023-08-21T11:20:35;102370.16;;;35.98;39.68
55550;BME280;41397;49.972;18.944;2023-08-21T11:23:41;102360.09;;;35.91;39.88
55550;BME280;41397;49.972;18.944;2023-08-21T11:26:43;102365.60;;;35.81;39.49
55550;BME280;41397;49.972;18.944;2023-08-21T11:29:50;102358.87;;;35.70;39.86
55550;BME280;41397;49.972;18.944;2023-08-21T11:36:04;102365.97;;;35.55;40.61
55550;BME280;41397;49.972;18.944;2023-08-21T11:39:06;102373.03;;;35.53;40.72
55550;BME280;41397;49.972;18.944;2023-08-21T11:42:13;102365.50;;;35.47;41.23
55550;BME280;41397;49.972;18.944;2023-08-21T11:45:14;102373.69;;;35.43;41.20
55550;BME280;41397;49.972;18.944;2023-08-21T11:48:19;102369.88;;;35.38;41.81
55550;BME280;41397;49.972;18.944;2023-08-21T11:51:24;102372.11;;;35.35;42.16
55550;BME280;41397;49.972;18.944;2023-08-21T11:54:25;102378.92;;;35.34;42.28
55550;BME280;41397;49.972;18.944;2023-08-21T11:57:26;102378.20;;;35.27;41.33
55550;BME280;41397;49.972;18.944;2023-08-21T12:00:30;102380.07;;;35.22;41.94
55550;BME280;41397;49.972;18.944;2023-08-21T12:03:36;102377.52;;;35.08;42.04
55550;BME280;41397;49.972;18.944;2023-08-21T12:06:45;102384.53;;;35.06;43.07
55550;BME280;41397;49.972;18.944;2023-08-21T12:09:47;102379.76;;;34.95;44.89
55550;BME280;41397;49.972;18.944;2023-08-21T12:12:50;102365.06;;;34.86;46.25
55550;BME280;41397;49.972;18.944;2023-08-21T12:15:51;102358.56;;;34.74;46.74
55550;BME280;41397;49.972;18.944;2023-08-21T12:18:52;102375.10;;;34.65;46.46
55550;BME280;41397;49.972;18.944;2023-08-21T12:21:58;102358.43;;;34.57;49.14
55550;BME280;41397;49.972;18.944;2023-08-21T12:24:59;102365.59;;;34.47;51.08
55550;BME280;41397;49.972;18.944;2023-08-21T12:28:00;102365.10;;;34.39;50.60
55550;BME280;41397;49.972;18.944;2023-08-21T12:31:01;102359.30;;;34.34;50.05
55550;BME280;41397;49.972;18.944;2023-08-21T12:34:02;102354.23;;;34.24;48.68
55550;BME280;41397;49.972;18.944;2023-08-21T12:37:04;102351.02;;;34.20;52.43
55550;BME280;41397;49.972;18.944;2023-08-21T12:40:06;102356.07;;;34.18;50.64
55550;BME280;41397;49.972;18.944;2023-08-21T12:43:08;102347.09;;;34.21;47.31
55550;BME280;41397;49.972;18.944;2023-08-21T12:46:10;102351.02;;;34.20;49.94
55550;BME280;41397;49.972;18.944;2023-08-21T12:49:11;102356.59;;;34.27;50.74
55550;BME280;41397;49.972;18.944;2023-08-21T12:52:13;102351.90;;;34.33;51.16
55550;BME280;41397;49.972;18.944;2023-08-21T12:55:14;102352.75;;;34.45;51.08
55550;BME280;41397;49.972;18.944;2023-08-21T12:58:15;102345.83;;;34.53;51.34
55550;BME280;41397;49.972;18.944;2023-08-21T13:01:16;102343.76;;;34.60;49.79
55550;BME280;41397;49.972;18.944;2023-08-21T13:04:18;102335.48;;;34.58;48.48
55550;BME280;41397;49.972;18.944;2023-08-21T13:07:19;102337.07;;;34.66;47.98
55550;BME280;41397;49.972;18.944;2023-08-21T13:10:20;102327.80;;;34.71;47.24
55550;BME280;41397;49.972;18.944;2023-08-21T13:13:21;102335.55;;;34.75;47.06
55550;BME280;41397;49.972;18.944;2023-08-21T13:16:24;102329.37;;;34.78;46.79
55550;BME280;41397;49.972;18.944;2023-08-21T13:19:25;102334.31;;;34.83;46.23
55550;BME280;41397;49.972;18.944;2023-08-21T13:22:26;102318.73;;;34.85;46.09
55550;BME280;41397;49.972;18.944;2023-08-21T13:25:27;102315.39;;;34.88;45.60
55550;BME280;41397;49.972;18.944;2023-08-21T13:28:32;102301.79;;;34.90;45.60
55550;BME280;41397;49.972;18.944;2023-08-21T13:31:34;102302.14;;;34.94;45.27
55550;BME280;41397;49.972;18.944;2023-08-21T13:34:36;102298.20;;;34.95;43.57
55550;BME280;41397;49.972;18.944;2023-08-21T13:37:38;102302.48;;;34.98;43.89
55550;BME280;41397;49.972;18.944;2023-08-21T13:40:40;102292.23;;;34.97;43.67
55550;BME280;41397;49.972;18.944;2023-08-21T13:43:41;102290.63;;;35.01;43.49
55550;BME280;41397;49.972;18.944;2023-08-21T13:46:43;102289.50;;;35.02;44.25
55550;BME280;41397;49.972;18.944;2023-08-21T13:49:44;102290.36;;;35.02;43.72
55550;BME280;41397;49.972;18.944;2023-08-21T13:52:47;102294.06;;;35.03;43.61
55550;BME280;41397;49.972;18.944;2023-08-21T13:55:52;102280.73;;;35.03;43.77
55550;BME280;41397;49.972;18.944;2023-08-21T13:58:53;102274.16;;;35.03;43.56
55550;BME280;41397;49.972;18.944;2023-08-21T14:01:54;102276.77;;;35.04;42.72
55550;BME280;41397;49.972;18.944;2023-08-21T14:04:55;102271.31;;;35.03;43.29
55550;BME280;41397;49.972;18.944;2023-08-21T14:07:57;102279.13;;;35.07;43.36
55550;BME280;41397;49.972;18.944;2023-08-21T14:10:58;102266.63;;;35.08;42.98
55550;BME280;41397;49.972;18.944;2023-08-21T14:14:00;102268.38;;;35.09;43.46
55550;BME280;41397;49.972;18.944;2023-08-21T14:17:03;102264.66;;;35.09;43.26
55550;BME280;41397;49.972;18.944;2023-08-21T14:20:06;102249.08;;;35.11;42.81
55550;BME280;41397;49.972;18.944;2023-08-21T14:23:10;102255.87;;;35.10;43.18
55550;BME280;41397;49.972;18.944;2023-08-21T14:26:12;102251.03;;;35.11;43.01
55550;BME280;41397;49.972;18.944;2023-08-21T14:29:13;102239.93;;;35.09;42.59
55550;BME280;41397;49.972;18.944;2023-08-21T14:32:14;102243.63;;;35.10;42.07
55550;BME280;41397;49.972;18.944;2023-08-21T14:35:15;102247.85;;;35.07;42.83
55550;BME280;41397;49.972;18.944;2023-08-21T14:38:17;102244.77;;;35.09;43.06
55550;BME280;41397;49.972;18.944;2023-08-21T14:41:18;102245.02;;;35.07;43.18
55550;BME280;41397;49.972;18.944;2023-08-21T14:44:19;102237.70;;;35.11;42.25
55550;BME280;41397;49.972;18.944;2023-08-21T14:47:21;102234.25;;;35.09;41.78
55550;BME280;41397;49.972;18.944;2023-08-21T14:50:22;102241.30;;;35.07;42.71
55550;BME280;41397;49.972;18.944;2023-08-21T14:53:26;102235.84;;;35.05;42.65
55550;BME280;41397;49.972;18.944;2023-08-21T14:56:27;102230.54;;;35.09;43.32
55550;BME280;41397;49.972;18.944;2023-08-21T14:59:28;102222.88;;;35.09;43.94
55550;BME280;41397;49.972;18.944;2023-08-21T15:02:29;102218.28;;;35.08;43.26
55550;BME280;41397;49.972;18.944;2023-08-21T15:05:33;102233.98;;;35.11;43.37
55550;BME280;41397;49.972;18.944;2023-08-21T15:08:37;102223.73;;;35.10;43.81
55550;BME280;41397;49.972;18.944;2023-08-21T15:11:40;102224.86;;;35.09;43.51
55550;BME280;41397;49.972;18.944;2023-08-21T15:14:41;102224.59;;;35.10;43.90
55550;BME280;41397;49.972;18.944;2023-08-21T15:17:43;102225.10;;;35.07;44.19
55550;BME280;41397;49.972;18.944;2023-08-21T15:20:44;102218.28;;;35.08;43.94
55550;BME280;41397;49.972;18.944;2023-08-21T15:23:46;102215.34;;;35.03;44.14
55550;BME280;41397;49.972;18.944;2023-08-21T15:26:48;102219.89;;;35.04;44.15
55550;BME280;41397;49.972;18.944;2023-08-21T15:29:49;102232.13;;;35.05;44.79
55550;BME280;41397;49.972;18.944;2023-08-21T15:32:50;102224.97;;;35.02;45.03
55550;BME280;41397;49.972;18.944;2023-08-21T15:35:52;102222.74;;;35.04;44.78
55550;BME280;41397;49.972;18.944;2023-08-21T15:38:53;102216.95;;;34.99;44.55
55550;BME280;41397;49.972;18.944;2023-08-21T15:41:56;102218.09;;;34.98;44.87
55550;BME280;41397;49.972;18.944;2023-08-21T15:44:58;102215.75;;;34.95;44.30
55550;BME280;41397;49.972;18.944;2023-08-21T15:47:59;102215.38;;;34.91;44.39
55550;BME280;41397;49.972;18.944;2023-08-21T15:51:01;102210.89;;;34.79;43.89
55550;BME280;41397;49.972;18.944;2023-08-21T15:54:04;102212.73;;;34.73;44.45